Tiempo atmosférico en la estación meteorológica de Seira, Huesca (825 m.)



Fecha
DESCASC
Temp. máxima en grados centígrados (hora)
DESCASC
Temp. mínima en grados centígrados (hora)
DESCASC
Temp. media en grados centígrados
DESCASC
Racha de viento máxima en m/sg (hora)
DESCASC
Velocidad máxima media en intervalos de 10 minutos(hora)
DESCASC
Precipitaciones diarias en mm
DESCASC
Precipitaciones de 00:00 a 06:00 en mm
DESCASC
Precipitaciones de 06:00 a 12:00 en mm
DESCASC
Precipitaciones de 12:00 a 18:00 en mm
DESCASC
Precipitaciones de 18:00 a 24:00 en mm
DESCASC
15-08-2019 30.6 (17:30) 12.8 (07:20) 21.7 13.06 (16:20) 5.28 (15:20) 0 0 0 0 0
14-08-2019 30.3 (16:20) 10.3 (00:00) 20.3 9.44 (17:00) 4.44 (12:10) 0 0 0 0 0
13-08-2019 25.8 (16:50) 12.5 (00:00) 19.1 9.44 (17:00) 4.44 (16:10) 0 0 0 0 0
12-08-2019 27.1 (18:00) 14.9 (00:00) 21 8.33 (14:10) 4.17 (13:50) 1.8 1.8 0 0 0
11-08-2019 29.4 (16:00) 19.9 (00:00) 24.6 8.61 (16:40) 3.61 (08:50) 0 0 0 0 0
10-08-2019 31 (17:50) 18.9 (00:00) 24.9 9.44 (17:00) 4.44 (15:30) 0 0 0 0 0
09-08-2019 34 (18:00) 17.7 (00:00) 25.9 8.33 (17:10) 4.17 (15:50) 0 0 0 0 0
08-08-2019 32.3 (16:10) 16.4 (00:00) 24.3 8.06 (18:30) 4.17 (15:20) 0 0 0 0 0
07-08-2019 29.3 (13:00) 17 (00:00) 23.1 8.06 (12:50) 3.89 (11:40) 0.4 0 0 0 0.4
06-08-2019 33.5 (16:20) 17.2 (00:00) 25.4 7.78 (13:20) 3.89 (18:50) 0 0 0 0 0
05-08-2019 34.2 (15:50) 16.9 (00:00) 25.6 7.5 (16:50) 4.17 (12:40) 0 0 0 0 0
04-08-2019 34.6 (16:30) 15.9 (00:00) 25.2 8.33 (14:50) 3.89 (12:30) 0 0 0 0 0
03-08-2019 33.3 (15:40) 14.1 (00:00) 23.7 8.61 (21:00) 4.17 (12:30) 0 0 0 0 0
02-08-2019 31.3 (17:00) 14.8 (00:00) 23 9.17 (17:10) 4.72 (16:30) 0 0 0 0 0
01-08-2019 30.3 (16:50) 15.6 (00:00) 22.9 8.61 (15:00) 4.44 (16:30) 0 0 0 0 0
31-07-2019 28.9 (16:10) 10.7 (00:00) 19.8 8.33 (14:30) 4.17 (13:50) 0 0 0 0 0
30-07-2019 27.6 (18:10) 15.4 (00:00) 21.5 8.33 (15:10) 3.61 (11:40) 0 0 0 0 0
29-07-2019 30.2 (17:30) 10.7 (00:00) 20.5 8.89 (15:40) 4.17 (16:20) 0 0 0 0 0
28-07-2019 26.9 (17:20) 12 (00:00) 19.4 7.78 (14:30) 3.89 (15:00) 0 0 0 0 0
27-07-2019 21.2 (18:30) 15 (00:00) 18.1 8.33 (18:50) 2.5 (18:50) 22.2 2.4 19.6 0 0.2
26-07-2019 26.9 (12:20) 17.2 (00:00) 22.1 8.06 (17:40) 3.61 (17:40) 1 0 0 1 0
25-07-2019 35.9 (15:50) 16.6 (00:00) 26.3 10 (20:30) 5.56 (20:30) 0 0 0 0 0
24-07-2019 36.8 (15:00) 16.8 (00:00) 26.8 7.78 (17:10) 4.17 (16:30) 0 0 0 0 0
23-07-2019 36.7 (17:00) 16.2 (00:00) 26.5 8.61 (14:10) 4.72 (18:20) 0 0 0 0 0
22-07-2019 35.9 (16:00) 17.3 (00:00) 26.6 8.89 (17:50) 4.44 (17:00) 0 0 0 0 0
21-07-2019 34 (16:40) 17.5 (00:00) 25.8 8.06 (15:50) 4.17 (15:40) 0 0 0 0 0
20-07-2019 33.5 (17:10) 17.5 (00:00) 25.5 8.33 (15:40) 4.17 (13:00) 0 0 0 0 0
19-07-2019 31.8 (17:00) 12.7 (00:00) 22.2 7.78 (18:10) 4.17 (18:10) 0 0 0 0 0

Gráficas

Temp. máximas Temp. mínimas Temp. medias Precipitaciones Rachas de viento máximas Velocidades máximas media en intervalos de 10 minutos

Datos horarios

Fecha y hora oficial Temperatura (ºC) Velocidad del viento (km/h) Dirección del viento Racha (km/h) Dirección de racha Precipitación (mm) Presión (hPa) Tendencia (hPa) Humedad (%)
2019-08-17 23:00:00 21.3 0 Calma 4 Norte 0 -- -- 56
2019-08-17 22:00:00 23.3 0 Calma 4 Sur 0 -- -- 51
2019-08-17 21:00:00 26.1 0 Calma 7 Sudoeste 0 -- -- 44
2019-08-17 20:00:00 30.6 5 Sur 22 Sudoeste 0 -- -- 33
2019-08-17 19:00:00 32.1 11 Sudoeste 26 Sudoeste 0 -- -- 31
2019-08-17 18:00:00 33.1 11 Sudoeste 27 Sudoeste 0 -- -- 31
2019-08-17 17:00:00 34.2 12 Sudoeste 27 Sudoeste 0 -- -- 29
2019-08-17 16:00:00 34 11 Sudoeste 27 Sudoeste 0 -- -- 27
2019-08-17 15:00:00 33.4 9 Sudoeste 28 Sudoeste 0 -- -- 28
2019-08-17 14:00:00 32.9 8 Sudoeste 23 Sudoeste 0 -- -- 30
2019-08-17 13:00:00 31.5 9 Sudoeste 22 Sudoeste 0 -- -- 28
2019-08-17 12:00:00 28.2 9 Sudoeste 18 Oeste 0 -- -- 32
2019-08-17 11:00:00 21.9 3 Norte 7 Norte 0 -- -- 44
2019-08-17 10:00:00 18.1 2 Norte 10 Norte 0 -- -- 55
2019-08-17 09:00:00 15.3 2 Sur 11 Norte 0 -- -- 64
2019-08-17 08:00:00 13.8 0 Calma 7 Norte 0 -- -- 69
2019-08-17 07:00:00 14 0 Calma 6 Nordeste 0 -- -- 66
2019-08-17 06:00:00 14.5 0 Calma 4 Norte 0 -- -- 64
2019-08-17 05:00:00 14.8 2 Noroeste 5 Noroeste 0 -- -- 64
2019-08-17 04:00:00 15.5 0 Calma 5 Norte 0 -- -- 61
2019-08-17 03:00:00 15.9 0 Calma 4 Sudoeste 0 -- -- 60
2019-08-17 02:00:00 16.5 0 Calma 3 Sur 0 -- -- 58
2019-08-17 01:00:00 16.8 0 Calma 3 Sudeste 0 -- -- 57
2019-08-17 00:00:00 17.7 0 Calma 3 Sudeste 0 -- -- 54
2019-08-16 23:00:00 19.4 0 Calma 3 Este 0 -- -- 50
2019-08-16 22:00:00 21.2 2 Este 4 Sudeste 0 -- -- 47
2019-08-16 21:00:00 24.5 2 Sudeste 14 Sudeste 0 -- -- 39
2019-08-16 20:00:00 28.4 7 Sur 24 Sudoeste 0 -- -- 31
2019-08-16 19:00:00 30.1 8 Sur 23 Sudoeste 0 -- -- 29
2019-08-16 18:00:00 30.9 11 Sudoeste 27 Sudoeste 0 -- -- 30
2019-08-16 17:00:00 31.4 7 Sudoeste 23 Sudoeste 0 -- -- 26
2019-08-16 16:00:00 31.1 9 Sur 27 Sudoeste 0 -- -- 24
2019-08-16 15:00:00 30.2 10 Sudoeste 25 Oeste 0 -- -- 28
2019-08-16 14:00:00 28.9 10 Sudoeste 26 Sudoeste 0 -- -- 32
2019-08-16 13:00:00 27.5 13 Sudoeste 28 Sudoeste 0 -- -- 34
2019-08-16 12:00:00 25 12 Sudoeste 22 Sudoeste 0 -- -- 38
2019-08-16 11:00:00 19.1 0 Calma 7 Norte 0 -- -- 51
2019-08-16 10:00:00 15.6 3 Norte 6 Noroeste 0 -- -- 61
2019-08-16 09:00:00 13.2 2 Nordeste 11 Nordeste 0 -- -- 70
2019-08-16 08:00:00 11.7 0 Calma 4 Nordeste 0 -- -- 75
2019-08-16 07:00:00 12 0 Calma 3 Nordeste 0 -- -- 74
2019-08-16 06:00:00 12.7 0 Calma 8 Sudoeste 0 -- -- 71
2019-08-16 05:00:00 13.5 0 Calma 8 Noroeste 0 -- -- 68
2019-08-16 04:00:00 14 0 Calma 4 Este 0 -- -- 67
2019-08-16 03:00:00 14.7 0 Calma 3 Sudeste 0 -- -- 64
2019-08-16 02:00:00 15.5 0 Calma 4 Sudeste 0 -- -- 62
2019-08-16 01:00:00 16.7 2 Sur 4 Sudeste 0 -- -- 58
2019-08-16 00:00:00 17.7 0 Calma 3 Sudeste 0 -- -- 55
2019-08-15 23:00:00 19.4 0 Calma 5 Nordeste 0 -- -- 51
2019-08-15 22:00:00 21.8 0 Calma 5 Noroeste 0 -- -- 44
2019-08-15 21:00:00 24.4 2 Este 12 Sur 0 -- -- 34
2019-08-15 20:00:00 28.3 5 Sur 24 Sudoeste 0 -- -- 27
2019-08-15 19:00:00 29.6 10 Sudoeste 29 Sudoeste 0 -- -- 26
2019-08-15 18:00:00 30.4 13 Sudoeste 29 Sudoeste 0 -- -- 28
2019-08-15 17:00:00 30.2 13 Sudoeste 47 Sudoeste 0 -- -- 34
2019-08-15 16:00:00 29.6 14 Sudoeste 43 Sudoeste 0 -- -- 38
2019-08-15 15:00:00 29 15 Sudoeste 35 Sudoeste 0 -- -- 38
2019-08-15 14:00:00 29 13 Sudoeste 26 Sudoeste 0 -- -- 37
2019-08-15 13:00:00 27.6 13 Sudoeste 27 Sudoeste 0 -- -- 41
2019-08-15 12:00:00 25.6 8 Sudoeste 23 Oeste 0 -- -- 45
2019-08-15 11:00:00 20.9 2 Sudoeste 7 Norte 0 -- -- 54
2019-08-15 10:00:00 17.3 2 Norte 9 Norte 0 -- -- 62
2019-08-15 09:00:00 15.5 0 Calma 8 Norte 0 -- -- 71
2019-08-15 08:00:00 13.2 0 Calma 5 Sudoeste 0 -- -- 78
2019-08-15 07:00:00 13.2 0 Calma 5 Sudoeste 0 -- -- 75
2019-08-15 06:00:00 13.7 0 Calma 6 Sudoeste 0 -- -- 73
2019-08-15 05:00:00 14.3 0 Calma 4 Nordeste 0 -- -- 71
2019-08-15 04:00:00 15 0 Calma 4 Sudeste 0 -- -- 68
2019-08-15 03:00:00 15.7 0 Calma 3 Sudoeste 0 -- -- 66
2019-08-15 02:00:00 16.4 0 Calma 4 Sudeste 0 -- -- 64
2019-08-15 01:00:00 17.7 2 Nordeste 5 Este 0 -- -- 59
2019-08-15 00:00:00 18.5 2 Sur 4 Sudoeste 0 -- -- 57
2019-08-14 23:00:00 19.6 0 Calma 6 Norte 0 -- -- 54
2019-08-14 22:00:00 21.8 0 Calma 6 Nordeste 0 -- -- 46
2019-08-14 21:00:00 23.8 0 Calma 6 Sudeste 0 -- -- 41
2019-08-14 20:00:00 28.4 3 Sur 26 Sudoeste 0 -- -- 30
2019-08-14 19:00:00 29.6 6 Sudoeste 24 Sudoeste 0 -- -- 28
2019-08-14 18:00:00 30.1 10 Sudoeste 28 Sudoeste 0 -- -- 26
2019-08-14 17:00:00 30.2 11 Sudoeste 34 Sudoeste 0 -- -- 25
2019-08-14 16:00:00 29.5 9 Sudoeste 26 Sudoeste 0 -- -- 27
2019-08-14 15:00:00 28.5 8 Sudoeste 30 Sudoeste 0 -- -- 27
2019-08-14 14:00:00 27.5 10 Sudoeste 31 Sudoeste 0 -- -- 32
2019-08-14 13:00:00 25.9 12 Sudoeste 28 Sur 0 -- -- 34
2019-08-14 12:00:00 23.4 14 Sudoeste 24 Sudoeste 0 -- -- 39
2019-08-14 11:00:00 18.3 3 Sur 8 Sur 0 -- -- 52
2019-08-14 10:00:00 14.5 4 Norte 9 Norte 0 -- -- 64
2019-08-14 09:00:00 11.8 0 Calma 6 Noroeste 0 -- -- 74
2019-08-14 08:00:00 10.4 0 Calma 7 Sudoeste 0 -- -- 79
2019-08-14 07:00:00 10.6 0 Calma 6 Norte 0 -- -- 77
2019-08-14 06:00:00 11.2 0 Calma 4 Nordeste 0 -- -- 75
2019-08-14 05:00:00 11.6 0 Calma 6 Este 0 -- -- 74
2019-08-14 04:00:00 12.2 0 Calma 3 Sur 0 -- -- 72
2019-08-14 03:00:00 12.9 0 Calma 6 Nordeste 0 -- -- 69
2019-08-14 02:00:00 13.8 0 Calma 4 Sudeste 0 -- -- 66
2019-08-14 01:00:00 14.4 0 Calma 4 Norte 0 -- -- 64
2019-08-14 00:00:00 14.9 0 Calma 5 Sudeste 0 -- -- 62
2019-08-13 23:00:00 16.7 0 Calma 5 Este 0 -- -- 55
2019-08-13 22:00:00 19.1 2 Sudeste 15 Sur 0 -- -- 48
2019-08-13 21:00:00 22.2 6 Sur 19 Sudoeste 0 -- -- 40
2019-08-13 20:00:00 24 6 Sur 21 Sudoeste 0 -- -- 36
2019-08-13 19:00:00 25.2 9 Sudoeste 27 Sudoeste 0 -- -- 35
2019-08-13 18:00:00 25.7 10 Sur 29 Sudoeste 0 -- -- 35
2019-08-13 17:00:00 25.4 15 Sudoeste 34 Sudoeste 0 -- -- 36
2019-08-13 16:00:00 25.2 13 Sudoeste 30 Sudoeste 0 -- -- 37
2019-08-13 15:00:00 24.2 10 Sudoeste 27 Sudoeste 0 -- -- 40
2019-08-13 14:00:00 23.5 11 Sudoeste 28 Oeste 0 -- -- 40
2019-08-13 13:00:00 22.1 11 Sudoeste 23 Sudoeste 0 -- -- 43
2019-08-13 12:00:00 19.3 7 Sudoeste 18 Sudoeste 0 -- -- 51
2019-08-13 11:00:00 17.4 5 Sur 14 Sudoeste 0 -- -- 56
2019-08-13 10:00:00 16.1 4 Sudoeste 8 Sudoeste 0 -- -- 60
2019-08-13 09:00:00 13.9 0 Calma 4 Sur 0 -- -- 69
2019-08-13 08:00:00 12.7 0 Calma 4 Nordeste 0 -- -- 77
2019-08-13 07:00:00 12.6 0 Calma 3 Norte 0 -- -- 71
2019-08-13 06:00:00 12.6 0 Calma 3 Sur 0 -- -- 71
2019-08-13 05:00:00 12.7 0 Calma 4 Norte 0 -- -- 72
2019-08-13 04:00:00 12.9 0 Calma 4 Norte 0 -- -- 68
2019-08-13 03:00:00 13.5 0 Calma 7 Sur 0 -- -- 66
2019-08-13 02:00:00 13.9 0 Calma 6 Sur 0 -- -- 64
2019-08-13 01:00:00 14.2 0 Calma 4 Nordeste 0 -- -- 64
2019-08-13 00:00:00 15 0 Calma 4 Este 0 -- -- 61
2019-08-12 23:00:00 17 0 Calma 14 Sudoeste 0 -- -- 56
2019-08-12 22:00:00 18 3 Sur 9 Sur 0 -- -- 51
2019-08-12 21:00:00 20.1 3 Sudoeste 9 Sur 0 -- -- 46
2019-08-12 20:00:00 23.1 3 Sudoeste 13 Norte 0 -- -- 41
2019-08-12 19:00:00 26 7 Sudoeste 23 Sudoeste 0 -- -- 31
2019-08-12 18:00:00 27.1 10 Sudoeste 29 Sudoeste 0 -- -- 30
2019-08-12 17:00:00 26.8 12 Sudoeste 28 Sudoeste 0 -- -- 29
2019-08-12 16:00:00 25.6 8 Sudoeste 23 Sudoeste 0 -- -- 34
2019-08-12 15:00:00 24.7 8 Sudoeste 30 Sudoeste 0 -- -- 38
2019-08-12 14:00:00 25.5 10 Sudoeste 27 Sudoeste 0 -- -- 34
2019-08-12 13:00:00 24.9 9 Sudoeste 24 Sudoeste 0 -- -- 41
2019-08-12 12:00:00 23.1 9 Sudoeste 23 Sudoeste 0 -- -- 51
2019-08-12 11:00:00 20.1 6 Sudoeste 22 Sudoeste 0 -- -- 63
2019-08-12 10:00:00 17 3 Norte 6 Nordeste 0 -- -- 88
2019-08-12 09:00:00 15.8 0 Calma 4 Norte 0 -- -- 91
2019-08-12 08:00:00 15.1 0 Calma 7 Nordeste 0 -- -- 95
2019-08-12 07:00:00 15.1 2 Este 4 Sudeste 0 -- -- 94
2019-08-12 06:00:00 15.3 0 Calma 4 Sur 0 -- -- 94
2019-08-12 05:00:00 15.3 2 Este 5 Noroeste 0 -- -- 94
2019-08-12 04:00:00 15.8 0 Calma 4 Sudeste 0 -- -- 92
2019-08-12 03:00:00 16.9 2 Sudoeste 13 Nordeste 1.8 -- -- 85
2019-08-12 02:00:00 18.6 3 Sudeste 10 Noroeste 0 -- -- 66
2019-08-12 01:00:00 18.9 2 Sudeste 4 Sudeste 0 -- -- 58
2019-08-12 00:00:00 19.9 0 Calma 3 Este 0 -- -- 54
2019-08-11 23:00:00 21 0 Calma 6 Sur 0 -- -- 49
2019-08-11 22:00:00 24.1 2 Sudeste 8 Sudoeste 0 -- -- 40
2019-08-11 21:00:00 24.9 2 Nordeste 11 Sur 0 -- -- 39
2019-08-11 20:00:00 27.2 4 Sur 18 Sudeste 0 -- -- 34
2019-08-11 19:00:00 28.2 5 Oeste 19 Sudoeste 0 -- -- 30
2019-08-11 18:00:00 28.6 6 Oeste 26 Sudoeste 0 -- -- 33
2019-08-11 17:00:00 27.4 7 Sudoeste 31 Sudoeste 0 -- -- 42
2019-08-11 16:00:00 29.4 9 Sudoeste 31 Sudoeste 0 -- -- 37
2019-08-11 15:00:00 28.3 10 Sudoeste 29 Sudoeste 0 -- -- 40
2019-08-11 14:00:00 25.5 9 Sudoeste 20 Sur 0 -- -- 57
2019-08-11 13:00:00 25.1 8 Sudoeste 26 Sudoeste 0 -- -- 60
2019-08-11 12:00:00 23.6 6 Oeste 23 Sudoeste 0 -- -- 64
2019-08-11 11:00:00 22.9 9 Sudoeste 22 Sudoeste 0 -- -- 67
2019-08-11 10:00:00 22.9 9 Sudoeste 24 Sudoeste 0 -- -- 67
2019-08-11 09:00:00 23.2 12 Sudoeste 25 Sur 0 -- -- 66
2019-08-11 08:00:00 22.9 6 Sudoeste 20 Sudoeste 0 -- -- 67
2019-08-11 07:00:00 22.2 4 Sudoeste 12 Sudoeste 0 -- -- 69
2019-08-11 06:00:00 20.6 3 Nordeste 5 Sur 0 -- -- 63
2019-08-11 05:00:00 20.8 0 Calma 3 Nordeste 0 -- -- 63
2019-08-11 04:00:00 20.8 0 Calma 4 Sudeste 0 -- -- 61
2019-08-11 03:00:00 20.8 0 Calma 4 Sudeste 0 -- -- 59
2019-08-11 02:00:00 21.3 0 Calma 3 Sudeste 0 -- -- 57
2019-08-11 01:00:00 22 0 Calma 2 Sudeste 0 -- -- 60
2019-08-11 00:00:00 22.4 0 Calma 4 Sudeste 0 -- -- 53
2019-08-10 23:00:00 23.3 0 Calma 7 Sur 0 -- -- 50
2019-08-10 22:00:00 24.6 0 Calma 7 Sudoeste 0 -- -- 48
2019-08-10 21:00:00 26.2 0 Calma 17 Sudoeste 0 -- -- 41
2019-08-10 20:00:00 28.2 5 Sur 12 Sudeste 0 -- -- 36
2019-08-10 19:00:00 29.9 6 Sudoeste 26 Sudoeste 0 -- -- 29
2019-08-10 18:00:00 30.9 5 Sudoeste 33 Sudoeste 0 -- -- 27
2019-08-10 17:00:00 30.5 14 Sudoeste 34 Sudoeste 0 -- -- 32
2019-08-10 16:00:00 30.3 9 Sudoeste 32 Sudoeste 0 -- -- 32
2019-08-10 15:00:00 30.3 14 Sudoeste 32 Sudoeste 0 -- -- 34
2019-08-10 14:00:00 29.9 10 Sudoeste 28 Sudoeste 0 -- -- 33
2019-08-10 13:00:00 29.2 9 Sudoeste 27 Sudoeste 0 -- -- 36
2019-08-10 12:00:00 27.6 10 Sudoeste 30 Sur 0 -- -- 44
2019-08-10 11:00:00 26.1 12 Sudoeste 30 Sudoeste 0 -- -- 44
2019-08-10 10:00:00 24.2 8 Sudoeste 15 Oeste 0 -- -- 49
2019-08-10 09:00:00 19.8 2 Norte 5 Norte 0 -- -- 75
2019-08-10 08:00:00 19 2 Sudeste 5 Sudeste 0 -- -- 76
2019-08-10 07:00:00 20.4 0 Calma 8 Sur 0 -- -- 69
2019-08-10 06:00:00 23.3 0 Calma 11 Oeste 0 -- -- 58
2019-08-10 05:00:00 21.3 4 Sur 9 Sur 0 -- -- 66
2019-08-10 04:00:00 22.9 0 Calma 12 Sur 0 -- -- 60
2019-08-10 03:00:00 23.7 3 Sudoeste 15 Nordeste 0 -- -- 57
2019-08-10 02:00:00 24.2 2 Nordeste 9 Sudoeste 0 -- -- 58
2019-08-10 01:00:00 25 2 Sur 14 Sudoeste 0 -- -- 53
2019-08-10 00:00:00 23.6 3 Sudeste 9 Sudoeste 0 -- -- 60
2019-08-09 23:00:00 24.5 0 Calma 6 Nordeste 0 -- -- 59
2019-08-09 22:00:00 24.5 2 Sudeste 8 Nordeste 0 -- -- 63
2019-08-09 21:00:00 27.2 2 Sur 6 Sudeste 0 -- -- 44
2019-08-09 20:00:00 32.3 3 Sudoeste 21 Sudoeste 0 -- -- 34
2019-08-09 19:00:00 32.9 6 Sudoeste 29 Sudoeste 0 -- -- 30
2019-08-09 18:00:00 34 10 Sudoeste 30 Sudeste 0 -- -- 29
2019-08-09 17:00:00 33.8 10 Sudoeste 30 Oeste 0 -- -- 29
2019-08-09 16:00:00 33.5 14 Sudoeste 29 Sudoeste 0 -- -- 31
2019-08-09 15:00:00 33.6 9 Sudoeste 26 Sudoeste 0 -- -- 30
2019-08-09 14:00:00 32.8 7 Sur 28 Sudoeste 0 -- -- 31
2019-08-09 13:00:00 32.1 6 Sudoeste 23 Sudoeste 0 -- -- 34
2019-08-09 12:00:00 30 6 Sudoeste 19 Sudoeste 0 -- -- 39
2019-08-09 11:00:00 25 2 Noroeste 9 Noroeste 0 -- -- 55
2019-08-09 10:00:00 21.2 0 Calma 7 Norte 0 -- -- 68
2019-08-09 09:00:00 18.9 2 Sudeste 7 Sur 0 -- -- 76
2019-08-09 08:00:00 17.8 0 Calma 4 Sudeste 0 -- -- 79
2019-08-09 07:00:00 18.1 0 Calma 3 Oeste 0 -- -- 78
2019-08-09 06:00:00 18.8 0 Calma 3 Sudeste 0 -- -- 75
2019-08-09 05:00:00 19.5 0 Calma 6 Norte 0 -- -- 72
2019-08-09 04:00:00 20.4 0 Calma 6 Nordeste 0 -- -- 69
2019-08-09 03:00:00 20 0 Calma 3 Sudeste 0 -- -- 71
2019-08-09 02:00:00 19.2 0 Calma 3 Oeste 0 -- -- 75
2019-08-09 01:00:00 19 0 Calma 4 Sur 0 -- -- 73
2019-08-09 00:00:00 20.1 2 Este 4 Sudeste 0 -- -- 69
2019-08-08 23:00:00 21.2 0 Calma 3 Sudeste 0 -- -- 65
2019-08-08 22:00:00 22.5 0 Calma 4 Nordeste 0 -- -- 62
2019-08-08 21:00:00 25 0 Calma 11 Sur 0 -- -- 54
2019-08-08 20:00:00 28.3 6 Sur 20 Sudoeste 0 -- -- 44
2019-08-08 19:00:00 29.8 6 Sudoeste 29 Sudoeste 0 -- -- 41
2019-08-08 18:00:00 30.7 11 Sudoeste 25 Sudoeste 0 -- -- 40
2019-08-08 17:00:00 31.4 11 Sudoeste 24 Sudoeste 0 -- -- 40
2019-08-08 16:00:00 31.9 8 Sudoeste 27 Sudoeste 0 -- -- 39
2019-08-08 15:00:00 31 6 Sudoeste 18 Sur 0 -- -- 42
2019-08-08 14:00:00 30.6 5 Sur 22 Sudoeste 0 -- -- 41
2019-08-08 13:00:00 28.9 11 Sudoeste 21 Sudoeste 0 -- -- 45
2019-08-08 12:00:00 26.5 6 Sudoeste 15 Sudoeste 0 -- -- 51
2019-08-08 11:00:00 22.2 3 Nordeste 9 Sudeste 0 -- -- 71
2019-08-08 10:00:00 19.2 2 Norte 6 Norte 0 -- -- 85
2019-08-08 09:00:00 17.3 2 Norte 4 Norte 0 -- -- 93
2019-08-08 08:00:00 16.6 0 Calma 4 Sudoeste 0 -- -- 96
2019-08-08 07:00:00 16.6 0 Calma 3 Sur 0 -- -- 95
2019-08-08 06:00:00 16.7 2 Nordeste 4 Norte 0 -- -- 95
2019-08-08 05:00:00 16.9 0 Calma 3 Este 0 -- -- 95
2019-08-08 04:00:00 17.1 0 Calma 4 Sudeste 0 -- -- 95
2019-08-08 03:00:00 17.2 0 Calma 4 Sur 0 -- -- 95
2019-08-08 02:00:00 17.1 0 Calma 3 Sudeste 0 -- -- 95
2019-08-08 01:00:00 16.9 0 Calma 3 Nordeste 0 -- -- 94
2019-08-08 00:00:00 17.2 0 Calma 3 Este 0 -- -- 93
2019-08-07 23:00:00 17.7 2 Nordeste 4 Sudoeste 0 -- -- 93
2019-08-07 22:00:00 18.1 0 Calma 3 Sudeste 0 -- -- 92
2019-08-07 21:00:00 19.3 0 Calma 6 Sudoeste 0 -- -- 90
2019-08-07 20:00:00 19.6 0 Calma 5 Sur 0 -- -- 90
2019-08-07 19:00:00 19.9 0 Calma 10 Sudoeste 0.4 -- -- 88
2019-08-07 18:00:00 21.6 3 Sur 22 Sudoeste 0 -- -- 68
2019-08-07 17:00:00 22.1 7 Sudoeste 23 Sudoeste 0 -- -- 68
2019-08-07 16:00:00 23 13 Sudoeste 29 Sudoeste 0 -- -- 66
2019-08-07 15:00:00 25.4 6 Sudoeste 23 Sudoeste 0 -- -- 54
2019-08-07 14:00:00 26.9 11 Sudoeste 27 Sudoeste 0 -- -- 53
2019-08-07 13:00:00 29.3 9 Sudoeste 29 Sudoeste 0 -- -- 46
2019-08-07 12:00:00 27.4 9 Sudoeste 23 Sudoeste 0 -- -- 52
2019-08-07 11:00:00 24.4 4 Sudoeste 15 Sudoeste 0 -- -- 62
2019-08-07 10:00:00 21.1 3 Norte 6 Norte 0 -- -- 63
2019-08-07 09:00:00 18.3 2 Sudeste 5 Norte 0 -- -- 70
2019-08-07 08:00:00 17.1 0 Calma 4 Sudeste 0 -- -- 73
2019-08-07 07:00:00 17.4 0 Calma 4 Noroeste 0 -- -- 70
2019-08-07 06:00:00 17.5 0 Calma 3 Este 0 -- -- 69
2019-08-07 05:00:00 17.8 2 Sur 5 Sur 0 -- -- 68
2019-08-07 04:00:00 18 2 Sudeste 5 Sur 0 -- -- 68
2019-08-07 03:00:00 18.3 2 Este 4 Norte 0 -- -- 66
2019-08-07 02:00:00 19.2 0 Calma 5 Nordeste 0 -- -- 63
2019-08-07 01:00:00 19.7 0 Calma 4 Sudeste 0 -- -- 61
2019-08-07 00:00:00 20.6 0 Calma 4 Este 0 -- -- 58
2019-08-06 23:00:00 22.1 0 Calma 4 Sudeste 0 -- -- 57
2019-08-06 22:00:00 23.3 0 Calma 3 Este 0 -- -- 50
2019-08-06 21:00:00 26.9 2 Este 15 Sudoeste 0 -- -- 44
2019-08-06 20:00:00 29.9 8 Sur 24 Sudoeste 0 -- -- 34
2019-08-06 19:00:00 31.5 9 Sudoeste 25 Sudoeste 0 -- -- 36
2019-08-06 18:00:00 32.7 10 Sudoeste 22 Sudoeste 0 -- -- 34
2019-08-06 17:00:00 32.3 8 Sudoeste 22 Sudoeste 0 -- -- 33
2019-08-06 16:00:00 33.1 11 Sudoeste 27 Sudoeste 0 -- -- 31
2019-08-06 15:00:00 32.7 13 Sudoeste 26 Sudoeste 0 -- -- 32
2019-08-06 14:00:00 32.7 9 Sudoeste 28 Sudoeste 0 -- -- 34
2019-08-06 13:00:00 31.6 10 Sudoeste 25 Sudoeste 0 -- -- 34
2019-08-06 12:00:00 29 12 Sudoeste 23 Sudoeste 0 -- -- 39
2019-08-06 11:00:00 24.4 5 Sudoeste 10 Sudoeste 0 -- -- 55
2019-08-06 10:00:00 20.7 3 Norte 9 Norte 0 -- -- 65
2019-08-06 09:00:00 18.4 2 Nordeste 10 Noroeste 0 -- -- 75
2019-08-06 08:00:00 17.2 0 Calma 4 Norte 0 -- -- 79
2019-08-06 07:00:00 17.4 0 Calma 5 Norte 0 -- -- 77
2019-08-06 06:00:00 17.9 0 Calma 8 Norte 0 -- -- 75
2019-08-06 05:00:00 18.2 0 Calma 7 Norte 0 -- -- 74
2019-08-06 04:00:00 19.1 0 Calma 3 Nordeste 0 -- -- 72
2019-08-06 03:00:00 19.5 0 Calma 6 Norte 0 -- -- 71
2019-08-06 02:00:00 20.1 0 Calma 4 Norte 0 -- -- 70
2019-08-06 01:00:00 20.7 0 Calma 4 Sudoeste 0 -- -- 68
2019-08-06 00:00:00 21.6 0 Calma 3 Sudoeste 0 -- -- 64
2019-08-05 23:00:00 23 0 Calma 3 Sur 0 -- -- 58
2019-08-05 22:00:00 25.1 2 Sur 4 Sudeste 0 -- -- 52
2019-08-05 21:00:00 28 2 Oeste 6 Norte 0 -- -- 36
2019-08-05 20:00:00 32.1 4 Sudoeste 18 Sudoeste 0 -- -- 29
2019-08-05 19:00:00 32.9 12 Sudoeste 23 Sudoeste 0 -- -- 24
2019-08-05 18:00:00 33.5 11 Sudoeste 27 Sudoeste 0 -- -- 25
2019-08-05 17:00:00 34 10 Sudoeste 27 Sudoeste 0 -- -- 26
2019-08-05 16:00:00 34.2 9 Sudoeste 24 Sudoeste 0 -- -- 27
2019-08-05 15:00:00 33.5 8 Sudoeste 25 Sudoeste 0 -- -- 30
2019-08-05 14:00:00 32.7 6 Sudoeste 23 Sudoeste 0 -- -- 35
2019-08-05 13:00:00 31 14 Sudoeste 24 Sudoeste 0 -- -- 38
2019-08-05 12:00:00 28.6 9 Sudoeste 17 Sudoeste 0 -- -- 46
2019-08-05 11:00:00 24.2 3 Oeste 8 Norte 0 -- -- 57
2019-08-05 10:00:00 20.6 3 Norte 9 Norte 0 -- -- 67
2019-08-05 09:00:00 18.3 2 Este 6 Norte 0 -- -- 76
2019-08-05 08:00:00 17.1 0 Calma 6 Nordeste 0 -- -- 80
2019-08-05 07:00:00 17.1 0 Calma 4 Sudoeste 0 -- -- 78
2019-08-05 06:00:00 17.4 0 Calma 3 Sudoeste 0 -- -- 79
2019-08-05 05:00:00 18.2 0 Calma 4 Este 0 -- -- 75
2019-08-05 04:00:00 18.8 0 Calma 4 Sudeste 0 -- -- 73
2019-08-05 03:00:00 19.6 0 Calma 3 Sudeste 0 -- -- 70
2019-08-05 02:00:00 20.1 0 Calma 4 Este 0 -- -- 69
2019-08-05 01:00:00 20.5 0 Calma 4 Sudeste 0 -- -- 68
2019-08-05 00:00:00 21.8 0 Calma 5 Sudeste 0 -- -- 63
2019-08-04 23:00:00 23.7 0 Calma 4 Sur 0 -- -- 60
2019-08-04 22:00:00 25.9 0 Calma 13 Sudoeste 0 -- -- 50
2019-08-04 21:00:00 29.2 6 Sur 17 Sur 0 -- -- 37
2019-08-04 20:00:00 31.2 4 Sur 22 Sudoeste 0 -- -- 29
2019-08-04 19:00:00 33.2 4 Sudoeste 27 Sudoeste 0 -- -- 22
2019-08-04 18:00:00 34.3 8 Sudoeste 26 Sudoeste 0 -- -- 23
2019-08-04 17:00:00 34.2 13 Sudoeste 29 Sudoeste 0 -- -- 23
2019-08-04 16:00:00 34.3 10 Oeste 27 Oeste 0 -- -- 24
2019-08-04 15:00:00 33.9 10 Sudoeste 30 Sudoeste 0 -- -- 28
2019-08-04 14:00:00 33.1 10 Sudoeste 24 Sudoeste 0 -- -- 33
2019-08-04 13:00:00 31.6 10 Sudoeste 22 Sudoeste 0 -- -- 35
2019-08-04 12:00:00 28.7 9 Sudoeste 17 Sudoeste 0 -- -- 42
2019-08-04 11:00:00 23.9 3 Noroeste 7 Norte 0 -- -- 57
2019-08-04 10:00:00 20 4 Norte 8 Noroeste 0 -- -- 67
2019-08-04 09:00:00 17.5 0 Calma 4 Oeste 0 -- -- 76
2019-08-04 08:00:00 16.2 0 Calma 3 Norte 0 -- -- 80
2019-08-04 07:00:00 16.3 0 Calma 5 Sudoeste 0 -- -- 78
2019-08-04 06:00:00 16.7 0 Calma 5 Norte 0 -- -- 76
2019-08-04 05:00:00 17.4 0 Calma 4 Nordeste 0 -- -- 74
2019-08-04 04:00:00 18 0 Calma 4 Norte 0 -- -- 72
2019-08-04 03:00:00 18.5 0 Calma 2 Este 0 -- -- 71
2019-08-04 02:00:00 19.1 0 Calma 4 Nordeste 0 -- -- 70
2019-08-04 01:00:00 19.7 0 Calma 3 Nordeste 0 -- -- 66
2019-08-04 00:00:00 21 0 Calma 4 Este 0 -- -- 60
2019-08-03 23:00:00 22.7 0 Calma 8 Sudoeste 0 -- -- 55
2019-08-03 22:00:00 25.3 0 Calma 19 Sudoeste 0 -- -- 49
2019-08-03 21:00:00 28.7 10 Sudoeste 31 Sur 0 -- -- 40
2019-08-03 20:00:00 31.1 7 Sudoeste 22 Sudoeste 0 -- -- 33
2019-08-03 19:00:00 32.1 8 Sudoeste 29 Sudoeste 0 -- -- 30
2019-08-03 18:00:00 33.1 8 Sudoeste 27 Sudoeste 0 -- -- 30
2019-08-03 17:00:00 33.2 10 Sudoeste 28 Sudoeste 0 -- -- 30
2019-08-03 16:00:00 33 12 Sudoeste 29 Sudoeste 0 -- -- 29
2019-08-03 15:00:00 32.9 10 Sudoeste 24 Sudoeste 0 -- -- 28
2019-08-03 14:00:00 31.5 8 Sudoeste 23 Sudoeste 0 -- -- 33
2019-08-03 13:00:00 30.4 7 Sudoeste 27 Oeste 0 -- -- 35
2019-08-03 12:00:00 26.5 5 Sur 12 Sur 0 -- -- 45
2019-08-03 11:00:00 21.7 0 Calma 8 Norte 0 -- -- 56
2019-08-03 10:00:00 18.3 2 Norte 7 Norte 0 -- -- 66
2019-08-03 09:00:00 15.9 3 Norte 10 Nordeste 0 -- -- 73
2019-08-03 08:00:00 14.3 2 Sudeste 9 Oeste 0 -- -- 78
2019-08-03 07:00:00 14.2 2 Oeste 9 Norte 0 -- -- 77
2019-08-03 06:00:00 14.6 0 Calma 5 Norte 0 -- -- 75
2019-08-03 05:00:00 14.8 0 Calma 4 Sudeste 0 -- -- 75
2019-08-03 04:00:00 15.4 0 Calma 3 Nordeste 0 -- -- 74
2019-08-03 03:00:00 15.8 0 Calma 3 Norte 0 -- -- 72
2019-08-03 02:00:00 16.2 0 Calma 4 Sur 0 -- -- 70
2019-08-03 01:00:00 17.3 0 Calma 5 Sur 0 -- -- 65
2019-08-03 00:00:00 18.5 0 Calma 4 Este 0 -- -- 62
2019-08-02 23:00:00 20.4 0 Calma 5 Sudeste 0 -- -- 57
2019-08-02 22:00:00 22.7 0 Calma 5 Sudeste 0 -- -- 46
2019-08-02 21:00:00 26.3 2 Sudeste 10 Sur 0 -- -- 38
2019-08-02 20:00:00 30.1 6 Sur 17 Sudoeste 0 -- -- 32
2019-08-02 19:00:00 30.5 6 Sur 28 Sudoeste 0 -- -- 35
2019-08-02 18:00:00 29.8 5 Sudoeste 33 Sudoeste 0 -- -- 37
2019-08-02 17:00:00 31.3 9 Sudoeste 29 Sudoeste 0 -- -- 34
2019-08-02 16:00:00 31.1 13 Sudoeste 28 Sudoeste 0 -- -- 33
2019-08-02 15:00:00 30.5 9 Sur 25 Sudoeste 0 -- -- 35
2019-08-02 14:00:00 29.7 10 Sur 25 Sur 0 -- -- 39
2019-08-02 13:00:00 28.7 11 Sur 26 Sudoeste 0 -- -- 38
2019-08-02 12:00:00 26.9 11 Sudoeste 23 Sudoeste 0 -- -- 44
2019-08-02 11:00:00 22 2 Sudoeste 9 Sudoeste 0 -- -- 63
2019-08-02 10:00:00 18.5 0 Calma 7 Norte 0 -- -- 71
2019-08-02 09:00:00 16.3 0 Calma 6 Norte 0 -- -- 79
2019-08-02 08:00:00 15 0 Calma 4 Sudoeste 0 -- -- 84
2019-08-02 07:00:00 15 0 Calma 4 Sudeste 0 -- -- 83
2019-08-02 06:00:00 15.7 0 Calma 4 Sur 0 -- -- 81
2019-08-02 05:00:00 16.7 3 Sudeste 6 Noroeste 0 -- -- 77
2019-08-02 04:00:00 17.3 3 Sur 6 Sur 0 -- -- 77
2019-08-02 03:00:00 17.8 2 Sudeste 5 Sur 0 -- -- 75
2019-08-02 02:00:00 18.2 0 Calma 8 Sudoeste 0 -- -- 73
2019-08-02 01:00:00 18.5 0 Calma 3 Sudeste 0 -- -- 70
2019-08-02 00:00:00 19.1 0 Calma 4 Sudeste 0 -- -- 67
2019-08-01 23:00:00 20.6 0 Calma 3 Sur 0 -- -- 61
2019-08-01 22:00:00 22 0 Calma 4 Nordeste 0 -- -- 58
2019-08-01 21:00:00 24.2 0 Calma 6 Sudoeste 0 -- -- 54
2019-08-01 20:00:00 28.6 3 Sudoeste 20 Sudoeste 0 -- -- 38
2019-08-01 19:00:00 28.9 10 Sudoeste 26 Oeste 0 -- -- 37
2019-08-01 18:00:00 29.8 13 Sudoeste 29 Sudoeste 0 -- -- 35
2019-08-01 17:00:00 30.2 13 Sudoeste 28 Sudoeste 0 -- -- 32
2019-08-01 16:00:00 29.6 12 Sudoeste 23 Sudoeste 0 -- -- 33
2019-08-01 15:00:00 28 9 Sudoeste 31 Sudoeste 0 -- -- 37
2019-08-01 14:00:00 27.8 8 Sudoeste 26 Sudoeste 0 -- -- 41
2019-08-01 13:00:00 26.8 11 Sudoeste 22 Sudoeste 0 -- -- 45
2019-08-01 12:00:00 25.5 14 Sudoeste 27 Sudoeste 0 -- -- 52
2019-08-01 11:00:00 23.3 3 Norte 8 Noroeste 0 -- -- 59
2019-08-01 10:00:00 19.6 0 Calma 8 Norte 0 -- -- 72
2019-08-01 09:00:00 17.6 2 Norte 11 Norte 0 -- -- 81
2019-08-01 08:00:00 16.1 0 Calma 8 Nordeste 0 -- -- 85
2019-08-01 07:00:00 15.7 2 Este 4 Sudeste 0 -- -- 85
2019-08-01 06:00:00 16.6 0 Calma 7 Sur 0 -- -- 81
2019-08-01 05:00:00 17.3 2 Norte 7 Noroeste 0 -- -- 78
2019-08-01 04:00:00 17.6 2 Sudoeste 6 Norte 0 -- -- 75
2019-08-01 03:00:00 17.9 4 Sur 12 Norte 0 -- -- 73
2019-08-01 02:00:00 17.3 0 Calma 4 Norte 0 -- -- 76
2019-08-01 01:00:00 17.1 0 Calma 3 Sudeste 0 -- -- 76
2019-08-01 00:00:00 17.3 0 Calma 3 Nordeste 0 -- -- 74
2019-07-31 23:00:00 18.6 0 Calma 3 Sudeste 0 -- -- 68
2019-07-31 22:00:00 20 0 Calma 4 Oeste 0 -- -- 65
2019-07-31 21:00:00 23.2 0 Calma 14 Sudoeste 0 -- -- 56
2019-07-31 20:00:00 26.5 7 Sudoeste 23 Sudoeste 0 -- -- 45
2019-07-31 19:00:00 27.4 10 Sudoeste 24 Sudoeste 0 -- -- 40
2019-07-31 18:00:00 28 15 Sudoeste 24 Sudoeste 0 -- -- 37
2019-07-31 17:00:00 28.6 9 Sudoeste 25 Sudoeste 0 -- -- 36
2019-07-31 16:00:00 28.8 8 Sudoeste 24 Sudoeste 0 -- -- 34
2019-07-31 15:00:00 28 9 Sudoeste 30 Sudoeste 0 -- -- 38
2019-07-31 14:00:00 27.2 13 Sudoeste 27 Sudoeste 0 -- -- 38
2019-07-31 13:00:00 26.1 8 Sudoeste 18 Sudoeste 0 -- -- 41
2019-07-31 12:00:00 22.5 3 Sur 9 Norte 0 -- -- 46
2019-07-31 11:00:00 17.4 0 Calma 8 Norte 0 -- -- 60
2019-07-31 10:00:00 15.3 4 Norte 11 Norte 0 -- -- 64
2019-07-31 09:00:00 12.8 2 Norte 10 Oeste 0 -- -- 74
2019-07-31 08:00:00 11.2 2 Este 7 Norte 0 -- -- 79
2019-07-31 07:00:00 10.7 0 Calma 4 Este 0 -- -- 78
2019-07-31 06:00:00 11.2 0 Calma 9 Nordeste 0 -- -- 77
2019-07-31 05:00:00 12 0 Calma 5 Nordeste 0 -- -- 73
2019-07-31 04:00:00 12.7 0 Calma 5 Este 0 -- -- 71
2019-07-31 03:00:00 13.3 0 Calma 4 Este 0 -- -- 71
2019-07-31 02:00:00 14.1 0 Calma 5 Nordeste 0 -- -- 69
2019-07-31 01:00:00 15 0 Calma 3 Norte 0 -- -- 66
2019-07-31 00:00:00 16 0 Calma 4 Este 0 -- -- 62
2019-07-30 23:00:00 17.2 0 Calma 4 Sudeste 0 -- -- 57
2019-07-30 22:00:00 19.6 0 Calma 6 Sur 0 -- -- 49
2019-07-30 21:00:00 22.8 4 Sur 13 Sur 0 -- -- 40
2019-07-30 20:00:00 26.6 5 Sudoeste 22 Sudoeste 0 -- -- 33
2019-07-30 19:00:00 27.1 12 Sudoeste 27 Sudoeste 0 -- -- 32
2019-07-30 18:00:00 27.4 6 Oeste 22 Sudoeste 0 -- -- 36
2019-07-30 17:00:00 26.4 9 Sudoeste 27 Oeste 0 -- -- 44
2019-07-30 16:00:00 26.8 9 Sudoeste 30 Sudoeste 0 -- -- 45
2019-07-30 15:00:00 27.4 5 Oeste 24 Sudoeste 0 -- -- 46
2019-07-30 14:00:00 26.7 7 Sur 24 Sur 0 -- -- 49
2019-07-30 13:00:00 25 5 Sur 24 Sur 0 -- -- 55
2019-07-30 12:00:00 25.1 11 Sudoeste 24 Sudoeste 0 -- -- 54
2019-07-30 11:00:00 23.2 10 Sudoeste 21 Oeste 0 -- -- 57
2019-07-30 10:00:00 19.3 3 Norte 5 Nordeste 0 -- -- 71
2019-07-30 09:00:00 17 0 Calma 4 Sur 0 -- -- 77
2019-07-30 08:00:00 15.7 0 Calma 3 Sur 0 -- -- 79
2019-07-30 07:00:00 15.6 2 Sudeste 5 Sudeste 0 -- -- 77
2019-07-30 06:00:00 15.7 0 Calma 3 Sudeste 0 -- -- 75
2019-07-30 05:00:00 16 0 Calma 4 Sudoeste 0 -- -- 75
2019-07-30 04:00:00 15.9 0 Calma 5 Norte 0 -- -- 74
2019-07-30 03:00:00 16.6 2 Sudeste 4 Norte 0 -- -- 71
2019-07-30 02:00:00 17 0 Calma 4 Sur 0 -- -- 69
2019-07-30 01:00:00 17.5 0 Calma 3 Este 0 -- -- 67
2019-07-30 00:00:00 17.3 2 Sudeste 4 Norte 0 -- -- 67
2019-07-29 23:00:00 18.4 2 Nordeste 5 Noroeste 0 -- -- 58
2019-07-29 22:00:00 20.4 0 Calma 6 Sudeste 0 -- -- 55
2019-07-29 21:00:00 22.6 0 Calma 4 Sur 0 -- -- 49
2019-07-29 20:00:00 29.4 4 Sudoeste 17 Sudoeste 0 -- -- 31
2019-07-29 19:00:00 29.5 8 Sudoeste 23 Sudoeste 0 -- -- 31
2019-07-29 18:00:00 30.2 9 Sudoeste 25 Sudoeste 0 -- -- 31
2019-07-29 17:00:00 30.1 9 Sur 31 Sudoeste 0 -- -- 31
2019-07-29 16:00:00 29.8 12 Sudoeste 32 Sudoeste 0 -- -- 31
2019-07-29 15:00:00 29 7 Sur 19 Sudoeste 0 -- -- 33
2019-07-29 14:00:00 28.1 6 Sur 22 Sur 0 -- -- 32
2019-07-29 13:00:00 26.8 7 Sudoeste 22 Sudoeste 0 -- -- 29
2019-07-29 12:00:00 23.8 3 Norte 9 Norte 0 -- -- 38
2019-07-29 11:00:00 19.5 2 Norte 8 Norte 0 -- -- 55
2019-07-29 10:00:00 15.1 3 Norte 12 Norte 0 -- -- 67
2019-07-29 09:00:00 12.6 0 Calma 9 Norte 0 -- -- 79
2019-07-29 08:00:00 10.8 0 Calma 7 Sur 0 -- -- 86
2019-07-29 07:00:00 10.7 0 Calma 6 Nordeste 0 -- -- 88
2019-07-29 06:00:00 11.5 0 Calma 6 Noroeste 0 -- -- 83
2019-07-29 05:00:00 11.8 0 Calma 6 Sudeste 0 -- -- 82
2019-07-29 04:00:00 12.3 0 Calma 4 Este 0 -- -- 81
2019-07-29 03:00:00 12.8 2 Sudeste 7 Sur 0 -- -- 78
2019-07-29 02:00:00 13.4 0 Calma 4 Sudeste 0 -- -- 76
2019-07-29 01:00:00 14.1 0 Calma 3 Sudeste 0 -- -- 75
2019-07-29 00:00:00 15.2 0 Calma 3 Nordeste 0 -- -- 71
2019-07-28 23:00:00 16.5 0 Calma 5 Sudeste 0 -- -- 65
2019-07-28 22:00:00 18.8 2 Sudeste 8 Sur 0 -- -- 55
2019-07-28 21:00:00 22.6 5 Sur 16 Sur 0 -- -- 43
2019-07-28 20:00:00 25.2 8 Sur 26 Sudoeste 0 -- -- 39
2019-07-28 19:00:00 25.9 8 Sudoeste 28 Sudoeste 0 -- -- 37
2019-07-28 18:00:00 26.9 11 Sudoeste 27 Sudoeste 0 -- -- 32
2019-07-28 17:00:00 26.7 12 Sudoeste 27 Sudoeste 0 -- -- 30
2019-07-28 16:00:00 26.3 11 Sudoeste 28 Sudoeste 0 -- -- 31
2019-07-28 15:00:00 25.5 14 Sudoeste 28 Sudoeste 0 -- -- 31
2019-07-28 14:00:00 25.2 11 Sudoeste 23 Sudoeste 0 -- -- 32
2019-07-28 13:00:00 24.7 5 Sudoeste 11 Sudoeste 0 -- -- 31
2019-07-28 12:00:00 22.2 3 Sur 10 Oeste 0 -- -- 34
2019-07-28 11:00:00 19.8 4 Norte 8 Norte 0 -- -- 40
2019-07-28 10:00:00 15.7 2 Sur 10 Norte 0 -- -- 59
2019-07-28 09:00:00 13.5 3 Noroeste 17 Noroeste 0 -- -- 66
2019-07-28 08:00:00 12.2 8 Norte 17 Norte 0 -- -- 69
2019-07-28 07:00:00 12.7 4 Nordeste 19 Norte 0 -- -- 69
2019-07-28 06:00:00 16.2 10 Norte 24 Norte 0 -- -- 48
2019-07-28 05:00:00 13.3 5 Nordeste 12 Norte 0 -- -- 68
2019-07-28 04:00:00 13.9 3 Este 12 Sudoeste 0 -- -- 66
2019-07-28 03:00:00 14.7 4 Este 12 Norte 0 -- -- 59
2019-07-28 02:00:00 15.6 4 Este 17 Norte 0 -- -- 60
2019-07-28 01:00:00 15.3 3 Este 8 Norte 0 -- -- 64
2019-07-28 00:00:00 15.2 3 Nordeste 10 Sur 0 -- -- 69
2019-07-27 23:00:00 17.6 4 Nordeste 16 Norte 0 -- -- 55
2019-07-26 12:00:00 -- -- -- -- -- -- -- -- --
2019-07-26 11:00:00 24.7 0 Calma 8 Norte 0 -- -- 56
2019-07-26 10:00:00 22.3 3 Norte 8 Noroeste 0 -- -- 61
2019-07-26 09:00:00 19.5 0 Calma 6 Noroeste 0 -- -- 76
2019-07-26 08:00:00 19.4 0 Calma 4 Sudeste 0 -- -- 71
2019-07-26 07:00:00 19.2 0 Calma 4 Sudoeste 0 -- -- 69
2019-07-26 06:00:00 19.2 2 Sur 9 Este 0 -- -- 69
2019-07-26 05:00:00 19 0 Calma 4 Nordeste 0 -- -- 69
2019-07-26 04:00:00 18.6 0 Calma 4 Norte 0 -- -- 72
2019-07-26 03:00:00 19.3 0 Calma 4 Sur 0 -- -- 69
2019-07-26 02:00:00 19.5 0 Calma 3 Sur 0 -- -- 67
2019-07-26 01:00:00 20.6 0 Calma 5 Sudeste 0 -- -- 64
2019-07-26 00:00:00 21.8 0 Calma 4 Sudeste 0 -- -- 61
2019-07-25 23:00:00 23.4 0 Calma 5 Sudeste 0 -- -- 55
2019-07-25 22:00:00 26.6 0 Calma 23 Sudoeste 0 -- -- 47
2019-07-25 21:00:00 29 10 Sudoeste 36 Sudoeste 0 -- -- 43
2019-07-25 20:00:00 32.3 18 Sudoeste 33 Sudoeste 0 -- -- 30
2019-07-25 19:00:00 33.7 17 Sudoeste 32 Sudoeste 0 -- -- 26
2019-07-25 18:00:00 35.2 16 Sudoeste 30 Sudoeste 0 -- -- 22
2019-07-25 17:00:00 35.9 12 Sudoeste 28 Sudoeste 0 -- -- 21
2019-07-25 16:00:00 35.9 11 Sudoeste 31 Sudoeste 0 -- -- 22
2019-07-25 15:00:00 35.6 8 Sudoeste 23 Oeste 0 -- -- 24
2019-07-25 14:00:00 34.7 11 Sudoeste 26 Sudoeste 0 -- -- 24
2019-07-25 13:00:00 33.2 15 Sudoeste 24 Sudoeste 0 -- -- 24
2019-07-25 12:00:00 30.9 13 Sudoeste 26 Sudoeste 0 -- -- 31
2019-07-25 11:00:00 25.6 0 Calma 7 Norte 0 -- -- 41
2019-07-25 10:00:00 21.2 3 Norte 7 Norte 0 -- -- 53
2019-07-25 09:00:00 18.5 2 Sudoeste 4 Norte 0 -- -- 62
2019-07-25 08:00:00 16.9 0 Calma 3 Nordeste 0 -- -- 66
2019-07-25 07:00:00 16.9 0 Calma 5 Nordeste 0 -- -- 64
2019-07-25 06:00:00 17.7 0 Calma 5 Nordeste 0 -- -- 61
2019-07-25 05:00:00 18 0 Calma 5 Este 0 -- -- 61
2019-07-25 04:00:00 18.8 0 Calma 8 Norte 0 -- -- 57
2019-07-25 03:00:00 19.7 0 Calma 4 Este 0 -- -- 55
2019-07-25 02:00:00 20.2 0 Calma 4 Norte 0 -- -- 52
2019-07-25 01:00:00 20.7 0 Calma 4 Sur 0 -- -- 50
2019-07-25 00:00:00 21.6 0 Calma 4 Nordeste 0 -- -- 44
2019-07-24 23:00:00 23.1 0 Calma 4 Sudeste 0 -- -- 39
2019-07-24 22:00:00 24.8 2 Este 4 Sudeste 0 -- -- 33
2019-07-24 21:00:00 28.1 0 Calma 6 Sudoeste 0 -- -- 28
2019-07-24 20:00:00 34 3 Sudoeste 23 Sudoeste 0 -- -- 21
2019-07-24 19:00:00 35.2 8 Sudoeste 26 Sudoeste 0 -- -- 20
2019-07-24 18:00:00 35.8 12 Sudoeste 28 Sudoeste 0 -- -- 20
2019-07-24 17:00:00 36.1 12 Sudoeste 27 Sudoeste 0 -- -- 20
2019-07-24 16:00:00 36.6 9 Sudoeste 27 Sudoeste 0 -- -- 20
2019-07-24 15:00:00 36.8 6 Sudoeste 25 Sudoeste 0 -- -- 20
2019-07-24 14:00:00 36 8 Sudoeste 22 Sudoeste 0 -- -- 19
2019-07-24 13:00:00 35 9 Sur 21 Sudoeste 0 -- -- 21
2019-07-24 12:00:00 31.3 3 Norte 8 Noroeste 0 -- -- 30
2019-07-24 11:00:00 25.9 0 Calma 8 Norte 0 -- -- 40
2019-07-24 10:00:00 21.4 2 Norte 7 Noroeste 0 -- -- 50
2019-07-24 09:00:00 18.8 0 Calma 8 Norte 0 -- -- 57
2019-07-24 08:00:00 17 0 Calma 10 Norte 0 -- -- 65
2019-07-24 07:00:00 17.1 2 Noroeste 5 Norte 0 -- -- 61
2019-07-24 06:00:00 17.5 2 Norte 6 Norte 0 -- -- 59
2019-07-24 05:00:00 18.2 0 Calma 4 Oeste 0 -- -- 58
2019-07-24 04:00:00 18.6 2 Sur 6 Norte 0 -- -- 58
2019-07-24 03:00:00 19.7 0 Calma 4 Norte 0 -- -- 53
2019-07-24 02:00:00 20.7 0 Calma 4 Sudeste 0 -- -- 51
2019-07-24 01:00:00 20.7 0 Calma 3 Sudeste 0 -- -- 51
2019-07-24 00:00:00 22.1 0 Calma 3 Nordeste 0 -- -- 48
2019-07-23 23:00:00 23.8 0 Calma 4 Sudeste 0 -- -- 42
2019-07-23 22:00:00 25.9 2 Sudeste 5 Sur 0 -- -- 38
2019-07-23 21:00:00 29.6 0 Calma 13 Sudoeste 0 -- -- 28
2019-07-23 20:00:00 34.8 5 Sudoeste 21 Sudoeste 0 -- -- 19
2019-07-23 19:00:00 35.5 9 Sudoeste 30 Oeste 0 -- -- 20
2019-07-23 18:00:00 36.5 7 Sudoeste 30 Sudoeste 0 -- -- 20
2019-07-23 17:00:00 36.7 6 Sudoeste 28 Sudoeste 0 -- -- 20
2019-07-23 16:00:00 36.3 5 Noroeste 21 Oeste 0 -- -- 21
2019-07-23 15:00:00 36 5 Oeste 31 Sudoeste 0 -- -- 21
2019-07-23 14:00:00 35.3 10 Sudoeste 23 Sudoeste 0 -- -- 22
2019-07-23 13:00:00 34.4 6 Sudoeste 20 Sudoeste 0 -- -- 23
2019-07-23 12:00:00 31 2 Sudeste 8 Sudeste 0 -- -- 31
2019-07-23 11:00:00 25.9 0 Calma 8 Norte 0 -- -- 40
2019-07-23 10:00:00 21 3 Noroeste 9 Norte 0 -- -- 53
2019-07-23 09:00:00 18.3 2 Norte 8 Noroeste 0 -- -- 61
2019-07-23 08:00:00 16.4 0 Calma 7 Noroeste 0 -- -- 67
2019-07-23 07:00:00 16.4 0 Calma 3 Norte 0 -- -- 62
2019-07-23 06:00:00 17 0 Calma 4 Noroeste 0 -- -- 61
2019-07-23 05:00:00 17.4 0 Calma 4 Norte 0 -- -- 60
2019-07-23 04:00:00 18.2 0 Calma 5 Norte 0 -- -- 59
2019-07-23 03:00:00 19 0 Calma 3 Noroeste 0 -- -- 57
2019-07-23 02:00:00 19.6 0 Calma 2 Sudeste 0 -- -- 56
2019-07-23 01:00:00 20.1 0 Calma 3 Sudeste 0 -- -- 53
2019-07-23 00:00:00 21.4 0 Calma 4 Sur 0 -- -- 48
2019-07-22 23:00:00 23 0 Calma 3 Este 0 -- -- 45
2019-07-22 22:00:00 25.2 0 Calma 5 Sur 0 -- -- 38
2019-07-22 21:00:00 29.6 2 Sur 12 Sudoeste 0 -- -- 30
2019-07-22 20:00:00 33.9 4 Sudoeste 24 Sudoeste 0 -- -- 23
2019-07-22 19:00:00 34.7 8 Sudoeste 30 Sudoeste 0 -- -- 22
2019-07-22 18:00:00 35.1 15 Sudoeste 32 Sudoeste 0 -- -- 23
2019-07-22 17:00:00 35.3 16 Sudoeste 31 Sudoeste 0 -- -- 24
2019-07-22 16:00:00 35.9 8 Sudoeste 27 Sudoeste 0 -- -- 24
2019-07-22 15:00:00 35.5 7 Sudoeste 26 Sudoeste 0 -- -- 25
2019-07-22 14:00:00 34.5 14 Sudoeste 27 Sudoeste 0 -- -- 26
2019-07-22 13:00:00 33.2 14 Sudoeste 23 Sudoeste 0 -- -- 29
2019-07-22 12:00:00 30.5 5 Sur 10 Sur 0 -- -- 35
2019-07-22 11:00:00 26.1 2 Norte 8 Norte 0 -- -- 47
2019-07-22 10:00:00 21.7 3 Norte 8 Norte 0 -- -- 59
2019-07-22 09:00:00 19.3 3 Noroeste 7 Noroeste 0 -- -- 68
2019-07-22 08:00:00 17.8 2 Noroeste 9 Noroeste 0 -- -- 75
2019-07-22 07:00:00 17.3 0 Calma 6 Noroeste 0 -- -- 74
2019-07-22 06:00:00 17.9 0 Calma 4 Nordeste 0 -- -- 72
2019-07-22 05:00:00 18.2 0 Calma 5 Sur 0 -- -- 71
2019-07-22 04:00:00 18.6 0 Calma 3 Sudeste 0 -- -- 71
2019-07-22 03:00:00 19.3 0 Calma 3 Sur 0 -- -- 69
2019-07-22 02:00:00 20.1 0 Calma 3 Sudeste 0 -- -- 67
2019-07-22 01:00:00 21 0 Calma 3 Norte 0 -- -- 63
2019-07-22 00:00:00 22.2 0 Calma 3 Sudeste 0 -- -- 58
2019-07-21 23:00:00 23.5 0 Calma 4 Este 0 -- -- 54
2019-07-21 22:00:00 25.4 0 Calma 6 Oeste 0 -- -- 49
2019-07-21 21:00:00 29.5 0 Calma 13 Sur 0 -- -- 38
2019-07-21 20:00:00 31.6 4 Sudoeste 20 Sudoeste 0 -- -- 35
2019-07-21 19:00:00 32.9 12 Sudoeste 26 Sudoeste 0 -- -- 32
2019-07-21 18:00:00 33.6 13 Sudoeste 27 Oeste 0 -- -- 31
2019-07-21 17:00:00 34 11 Sudoeste 26 Sudoeste 0 -- -- 32
2019-07-21 16:00:00 33.6 14 Sudoeste 29 Oeste 0 -- -- 31
2019-07-21 15:00:00 33.5 8 Sudoeste 25 Sudoeste 0 -- -- 32
2019-07-21 14:00:00 32.8 7 Sudoeste 21 Sur 0 -- -- 32
2019-07-21 13:00:00 31.6 10 Sudoeste 22 Sudoeste 0 -- -- 33
2019-07-21 12:00:00 28.9 5 Sur 14 Sudoeste 0 -- -- 41
2019-07-21 11:00:00 25.7 0 Calma 7 Norte 0 -- -- 53
2019-07-21 10:00:00 22.2 3 Norte 10 Norte 0 -- -- 65
2019-07-21 09:00:00 19.5 2 Nordeste 9 Nordeste 0 -- -- 74
2019-07-21 08:00:00 17.9 0 Calma 4 Oeste 0 -- -- 79
2019-07-21 07:00:00 17.6 0 Calma 3 Sur 0 -- -- 80
2019-07-21 06:00:00 18 2 Nordeste 4 Norte 0 -- -- 80
2019-07-21 05:00:00 18 0 Calma 3 Sur 0 -- -- 80
2019-07-21 04:00:00 18.5 0 Calma 4 Sudoeste 0 -- -- 79
2019-07-21 03:00:00 19.7 0 Calma 5 Sur 0 -- -- 74
2019-07-21 02:00:00 20.3 0 Calma 3 Sudeste 0 -- -- 72
2019-07-21 01:00:00 21.3 0 Calma 4 Este 0 -- -- 68
2019-07-21 00:00:00 22.9 0 Calma 9 Sur 0 -- -- 63
2019-07-20 23:00:00 26 4 Sur 17 Sudoeste 0 -- -- 54
2019-07-20 22:00:00 27.4 8 Sudoeste 17 Sudoeste 0 -- -- 50
2019-07-20 21:00:00 26.1 2 Sur 5 Sur 0 -- -- 42
2019-07-20 20:00:00 29.8 0 Calma 17 Sudoeste 0 -- -- 36
2019-07-20 19:00:00 32.3 6 Sur 30 Sudoeste 0 -- -- 28
2019-07-20 18:00:00 33.4 13 Sudoeste 28 Sudoeste 0 -- -- 29
2019-07-20 17:00:00 33.3 14 Sudoeste 28 Sudoeste 0 -- -- 28
2019-07-20 16:00:00 33.3 7 Sur 30 Sudoeste 0 -- -- 30
2019-07-20 15:00:00 32 10 Sudoeste 23 Sudeste 0 -- -- 32
2019-07-20 14:00:00 31.6 5 Sudoeste 23 Sudoeste 0 -- -- 39
2019-07-20 13:00:00 29.5 15 Sudoeste 24 Sudoeste 0 -- -- 41
2019-07-20 12:00:00 27.5 11 Sudoeste 20 Sudoeste 0 -- -- 48
2019-07-20 11:00:00 25.1 8 Sudoeste 19 Sudoeste 0 -- -- 54
2019-07-20 10:00:00 21.2 0 Calma 4 Norte 0 -- -- 62
2019-07-20 09:00:00 18.9 2 Norte 6 Noroeste 0 -- -- 74
2019-07-20 08:00:00 17.7 0 Calma 3 Sudeste 0 -- -- 78
2019-07-20 07:00:00 17.9 0 Calma 4 Sudoeste 0 -- -- 73
2019-07-20 06:00:00 18.9 0 Calma 5 Norte 0 -- -- 70
2019-07-20 05:00:00 19.5 0 Calma 3 Sur 0 -- -- 68
2019-07-20 04:00:00 19.9 2 Oeste 8 Norte 0 -- -- 64
2019-07-20 03:00:00 20 3 Sur 6 Sudoeste 0 -- -- 64
2019-07-20 02:00:00 19.4 0 Calma 3 Sudeste 0 -- -- 67
2019-07-20 01:00:00 19.1 0 Calma 2 Sur 0 -- -- 69
2019-07-20 00:00:00 20.1 0 Calma 3 Sudeste 0 -- -- 63
2019-07-19 23:00:00 21.2 0 Calma 4 Este 0 -- -- 58
2019-07-19 22:00:00 22.9 0 Calma 3 Sudeste 0 -- -- 52
2019-07-19 21:00:00 27.2 3 Sur 17 Sudoeste 0 -- -- 40
2019-07-19 20:00:00 30.5 7 Sudoeste 26 Sudoeste 0 -- -- 34
2019-07-19 19:00:00 31.2 6 Sudoeste 28 Sudoeste 0 -- -- 34
2019-07-19 18:00:00 31.7 11 Sudoeste 26 Sur 0 -- -- 33
2019-07-19 17:00:00 31.8 9 Sudoeste 27 Sudoeste 0 -- -- 33
2019-07-19 16:00:00 31.5 8 Sudoeste 27 Sudoeste 0 -- -- 33
2019-07-19 15:00:00 31 10 Sudoeste 23 Sudoeste 0 -- -- 33
2019-07-19 14:00:00 29.8 6 Sudoeste 19 Sur 0 -- -- 35
2019-07-19 13:00:00 28.5 9 Sudoeste 23 Sudoeste 0 -- -- 38
2019-07-19 12:00:00 26.3 13 Sudoeste 19 Sudoeste 0 -- -- 42
2019-07-19 11:00:00 22.3 2 Sudeste 5 Nordeste 0 -- -- 55
2019-07-19 10:00:00 17.6 3 Norte 8 Norte 0 -- -- 67
2019-07-19 09:00:00 14.7 0 Calma 6 Norte 0 -- -- 76
2019-07-19 08:00:00 13 0 Calma 3 Sudoeste 0 -- -- 82
2019-07-19 07:00:00 12.9 0 Calma 2 Norte 0 -- -- 81
2019-07-19 06:00:00 13.7 0 Calma 6 Sudeste 0 -- -- 78
2019-07-19 05:00:00 14.1 0 Calma 3 Norte 0 -- -- 77
2019-07-19 04:00:00 14.6 0 Calma 3 Sur 0 -- -- 75
2019-07-19 03:00:00 15.1 0 Calma 3 Sudeste 0 -- -- 74
2019-07-19 02:00:00 16 0 Calma 3 Sur 0 -- -- 70
2019-07-19 01:00:00 16.4 0 Calma 3 Nordeste 0 -- -- 71
2019-07-19 00:00:00 17.6 0 Calma 3 Sudeste 0 -- -- 67